sensor_id;sensor_type;location;lat;lon;timestamp;P1;durP1;ratioP1;P2;durP2;ratioP2
31760;SDS011;18335;51.486;7.562;2023-02-15T00:01:51;30.33;;;16.27;;
31760;SDS011;18335;51.486;7.562;2023-02-15T00:04:19;30.75;;;14.05;;
31760;SDS011;18335;51.486;7.562;2023-02-15T00:06:48;26.50;;;13.88;;
31760;SDS011;18335;51.486;7.562;2023-02-15T00:09:16;30.83;;;14.60;;
31760;SDS011;18335;51.486;7.562;2023-02-15T00:11:42;26.52;;;14.43;;
31760;SDS011;18335;51.486;7.562;2023-02-15T00:14:18;30.50;;;15.50;;
31760;SDS011;18335;51.486;7.562;2023-02-15T00:16:47;27.63;;;13.95;;
31760;SDS011;18335;51.486;7.562;2023-02-15T00:19:15;31.63;;;16.20;;
31760;SDS011;18335;51.486;7.562;2023-02-15T00:21:43;31.75;;;15.43;;
31760;SDS011;18335;51.486;7.562;2023-02-15T00:24:12;32.97;;;17.75;;
31760;SDS011;18335;51.486;7.562;2023-02-15T00:26:40;31.52;;;16.42;;
31760;SDS011;18335;51.486;7.562;2023-02-15T00:29:08;29.85;;;15.20;;
31760;SDS011;18335;51.486;7.562;2023-02-15T00:31:36;27.42;;;15.02;;
31760;SDS011;18335;51.486;7.562;2023-02-15T00:34:04;27.67;;;16.20;;
31760;SDS011;18335;51.486;7.562;2023-02-15T00:36:32;32.17;;;16.23;;
31760;SDS011;18335;51.486;7.562;2023-02-15T00:38:59;31.55;;;16.20;;
31760;SDS011;18335;51.486;7.562;2023-02-15T00:41:27;28.58;;;16.05;;
31760;SDS011;18335;51.486;7.562;2023-02-15T00:43:54;28.27;;;15.15;;
31760;SDS011;18335;51.486;7.562;2023-02-15T00:46:21;29.27;;;15.65;;
31760;SDS011;18335;51.486;7.562;2023-02-15T00:48:48;31.50;;;15.18;;
31760;SDS011;18335;51.486;7.562;2023-02-15T00:51:15;27.95;;;14.75;;
31760;SDS011;18335;51.486;7.562;2023-02-15T00:53:42;31.00;;;16.05;;
31760;SDS011;18335;51.486;7.562;2023-02-15T00:56:09;33.95;;;17.00;;
31760;SDS011;18335;51.486;7.562;2023-02-15T00:58:38;29.85;;;16.98;;
31760;SDS011;18335;51.486;7.562;2023-02-15T01:01:09;30.08;;;16.33;;
31760;SDS011;18335;51.486;7.562;2023-02-15T01:03:36;29.00;;;15.68;;
31760;SDS011;18335;51.486;7.562;2023-02-15T01:06:04;32.85;;;17.05;;
31760;SDS011;18335;51.486;7.562;2023-02-15T01:08:31;28.35;;;15.50;;
31760;SDS011;18335;51.486;7.562;2023-02-15T01:11:02;30.25;;;17.35;;
31760;SDS011;18335;51.486;7.562;2023-02-15T01:13:30;28.10;;;15.32;;
31760;SDS011;18335;51.486;7.562;2023-02-15T01:15:58;31.50;;;16.40;;
31760;SDS011;18335;51.486;7.562;2023-02-15T01:18:25;33.97;;;18.73;;
31760;SDS011;18335;51.486;7.562;2023-02-15T01:20:52;28.95;;;16.17;;
31760;SDS011;18335;51.486;7.562;2023-02-15T01:23:19;29.58;;;17.15;;
31760;SDS011;18335;51.486;7.562;2023-02-15T01:25:46;29.40;;;16.02;;
31760;SDS011;18335;51.486;7.562;2023-02-15T01:28:13;32.08;;;17.55;;
31760;SDS011;18335;51.486;7.562;2023-02-15T01:30:40;33.63;;;17.00;;
31760;SDS011;18335;51.486;7.562;2023-02-15T01:33:09;31.15;;;16.60;;
31760;SDS011;18335;51.486;7.562;2023-02-15T01:35:44;34.33;;;18.35;;
31760;SDS011;18335;51.486;7.562;2023-02-15T01:38:13;30.48;;;16.50;;
31760;SDS011;18335;51.486;7.562;2023-02-15T01:40:40;29.70;;;16.15;;
31760;SDS011;18335;51.486;7.562;2023-02-15T01:43:09;30.35;;;17.65;;
31760;SDS011;18335;51.486;7.562;2023-02-15T01:45:37;30.27;;;15.45;;
31760;SDS011;18335;51.486;7.562;2023-02-15T01:48:08;31.48;;;15.88;;
31760;SDS011;18335;51.486;7.562;2023-02-15T01:50:48;31.80;;;15.43;;
31760;SDS011;18335;51.486;7.562;2023-02-15T01:53:20;33.47;;;18.48;;
31760;SDS011;18335;51.486;7.562;2023-02-15T01:55:52;38.42;;;19.65;;
31760;SDS011;18335;51.486;7.562;2023-02-15T01:58:22;31.40;;;17.23;;
31760;SDS011;18335;51.486;7.562;2023-02-15T02:00:50;35.53;;;17.00;;
31760;SDS011;18335;51.486;7.562;2023-02-15T02:03:19;30.88;;;15.68;;
31760;SDS011;18335;51.486;7.562;2023-02-15T02:05:57;30.65;;;16.75;;
31760;SDS011;18335;51.486;7.562;2023-02-15T02:08:23;34.78;;;17.88;;
31760;SDS011;18335;51.486;7.562;2023-02-15T02:10:52;31.60;;;16.65;;
31760;SDS011;18335;51.486;7.562;2023-02-15T02:13:19;32.38;;;17.95;;
31760;SDS011;18335;51.486;7.562;2023-02-15T02:15:47;35.58;;;17.50;;
31760;SDS011;18335;51.486;7.562;2023-02-15T02:18:22;29.33;;;16.35;;
31760;SDS011;18335;51.486;7.562;2023-02-15T02:21:02;32.25;;;17.70;;
31760;SDS011;18335;51.486;7.562;2023-02-15T02:23:57;33.13;;;17.45;;
31760;SDS011;18335;51.486;7.562;2023-02-15T02:26:53;31.50;;;16.30;;
31760;SDS011;18335;51.486;7.562;2023-02-15T02:29:44;34.30;;;16.08;;
31760;SDS011;18335;51.486;7.562;2023-02-15T02:35:28;32.92;;;17.08;;
31760;SDS011;18335;51.486;7.562;2023-02-15T02:38:00;32.28;;;17.65;;
31760;SDS011;18335;51.486;7.562;2023-02-15T02:40:41;29.40;;;16.05;;
31760;SDS011;18335;51.486;7.562;2023-02-15T02:43:17;34.45;;;18.98;;
31760;SDS011;18335;51.486;7.562;2023-02-15T02:45:50;33.58;;;17.63;;
31760;SDS011;18335;51.486;7.562;2023-02-15T02:48:25;34.38;;;17.88;;
31760;SDS011;18335;51.486;7.562;2023-02-15T02:50:56;38.30;;;20.08;;
31760;SDS011;18335;51.486;7.562;2023-02-15T02:53:23;36.47;;;20.63;;
31760;SDS011;18335;51.486;7.562;2023-02-15T02:55:51;35.40;;;19.20;;
31760;SDS011;18335;51.486;7.562;2023-02-15T02:58:21;29.50;;;17.23;;
31760;SDS011;18335;51.486;7.562;2023-02-15T03:00:54;35.38;;;17.58;;
31760;SDS011;18335;51.486;7.562;2023-02-15T03:03:25;29.50;;;17.45;;
31760;SDS011;18335;51.486;7.562;2023-02-15T03:05:57;30.80;;;16.88;;
31760;SDS011;18335;51.486;7.562;2023-02-15T03:08:26;31.45;;;17.92;;
31760;SDS011;18335;51.486;7.562;2023-02-15T03:11:02;30.88;;;16.95;;
31760;SDS011;18335;51.486;7.562;2023-02-15T03:13:30;35.05;;;16.38;;
31760;SDS011;18335;51.486;7.562;2023-02-15T03:15:58;34.83;;;19.20;;
31760;SDS011;18335;51.486;7.562;2023-02-15T03:19:01;29.77;;;15.77;;
31760;SDS011;18335;51.486;7.562;2023-02-15T03:21:33;30.75;;;16.42;;
31760;SDS011;18335;51.486;7.562;2023-02-15T03:24:07;33.08;;;16.95;;
31760;SDS011;18335;51.486;7.562;2023-02-15T03:26:36;33.45;;;17.35;;
31760;SDS011;18335;51.486;7.562;2023-02-15T03:29:06;29.90;;;15.38;;
31760;SDS011;18335;51.486;7.562;2023-02-15T03:31:36;34.60;;;18.15;;
31760;SDS011;18335;51.486;7.562;2023-02-15T03:34:07;33.80;;;18.45;;
31760;SDS011;18335;51.486;7.562;2023-02-15T03:36:39;32.75;;;18.20;;
31760;SDS011;18335;51.486;7.562;2023-02-15T03:39:12;32.65;;;17.77;;
31760;SDS011;18335;51.486;7.562;2023-02-15T03:41:46;35.55;;;19.67;;
31760;SDS011;18335;51.486;7.562;2023-02-15T03:46:52;35.75;;;17.60;;
31760;SDS011;18335;51.486;7.562;2023-02-15T03:49:24;31.00;;;15.55;;
31760;SDS011;18335;51.486;7.562;2023-02-15T03:51:55;28.05;;;16.70;;
31760;SDS011;18335;51.486;7.562;2023-02-15T03:54:25;35.38;;;17.67;;
31760;SDS011;18335;51.486;7.562;2023-02-15T03:57:13;32.33;;;17.13;;
31760;SDS011;18335;51.486;7.562;2023-02-15T04:00:00;32.97;;;17.38;;
31760;SDS011;18335;51.486;7.562;2023-02-15T04:02:53;32.38;;;17.75;;
31760;SDS011;18335;51.486;7.562;2023-02-15T04:05:32;32.35;;;18.95;;
31760;SDS011;18335;51.486;7.562;2023-02-15T04:07:58;30.77;;;17.23;;
31760;SDS011;18335;51.486;7.562;2023-02-15T04:10:25;34.75;;;19.67;;
31760;SDS011;18335;51.486;7.562;2023-02-15T04:13:10;32.38;;;18.98;;
31760;SDS011;18335;51.486;7.562;2023-02-15T04:15:36;35.20;;;18.23;;
31760;SDS011;18335;51.486;7.562;2023-02-15T04:18:21;35.20;;;19.05;;
31760;SDS011;18335;51.486;7.562;2023-02-15T04:21:02;38.85;;;19.15;;
31760;SDS011;18335;51.486;7.562;2023-02-15T04:23:47;33.53;;;19.15;;
31760;SDS011;18335;51.486;7.562;2023-02-15T04:26:31;37.90;;;18.35;;
31760;SDS011;18335;51.486;7.562;2023-02-15T04:28:58;31.70;;;17.50;;
31760;SDS011;18335;51.486;7.562;2023-02-15T04:31:24;34.38;;;17.77;;
31760;SDS011;18335;51.486;7.562;2023-02-15T04:33:51;32.05;;;18.30;;
31760;SDS011;18335;51.486;7.562;2023-02-15T04:36:19;32.83;;;17.95;;
31760;SDS011;18335;51.486;7.562;2023-02-15T04:38:47;33.65;;;18.48;;
31760;SDS011;18335;51.486;7.562;2023-02-15T04:41:14;35.47;;;19.77;;
31760;SDS011;18335;51.486;7.562;2023-02-15T04:43:40;32.10;;;18.35;;
31760;SDS011;18335;51.486;7.562;2023-02-15T04:46:07;31.02;;;18.55;;
31760;SDS011;18335;51.486;7.562;2023-02-15T04:48:34;37.88;;;18.83;;
31760;SDS011;18335;51.486;7.562;2023-02-15T04:51:04;35.85;;;19.67;;
31760;SDS011;18335;51.486;7.562;2023-02-15T04:53:32;37.70;;;18.50;;
31760;SDS011;18335;51.486;7.562;2023-02-15T04:55:59;38.13;;;20.63;;
31760;SDS011;18335;51.486;7.562;2023-02-15T04:58:26;36.78;;;19.27;;
31760;SDS011;18335;51.486;7.562;2023-02-15T05:00:54;34.03;;;19.63;;
31760;SDS011;18335;51.486;7.562;2023-02-15T05:03:22;36.08;;;20.70;;
31760;SDS011;18335;51.486;7.562;2023-02-15T05:05:48;36.30;;;18.25;;
31760;SDS011;18335;51.486;7.562;2023-02-15T05:08:15;34.55;;;20.38;;
31760;SDS011;18335;51.486;7.562;2023-02-15T05:10:43;33.88;;;19.02;;
31760;SDS011;18335;51.486;7.562;2023-02-15T05:13:10;34.25;;;18.55;;
31760;SDS011;18335;51.486;7.562;2023-02-15T05:15:37;32.90;;;18.90;;
31760;SDS011;18335;51.486;7.562;2023-02-15T05:18:04;35.35;;;20.77;;
31760;SDS011;18335;51.486;7.562;2023-02-15T05:20:31;36.90;;;18.35;;
31760;SDS011;18335;51.486;7.562;2023-02-15T05:22:58;35.45;;;19.25;;
31760;SDS011;18335;51.486;7.562;2023-02-15T05:25:25;33.80;;;19.20;;
31760;SDS011;18335;51.486;7.562;2023-02-15T05:28:10;35.50;;;19.02;;
31760;SDS011;18335;51.486;7.562;2023-02-15T05:30:47;36.97;;;19.52;;
31760;SDS011;18335;51.486;7.562;2023-02-15T05:33:14;35.42;;;20.33;;
31760;SDS011;18335;51.486;7.562;2023-02-15T05:35:42;35.95;;;20.52;;
31760;SDS011;18335;51.486;7.562;2023-02-15T05:38:09;34.60;;;18.23;;
31760;SDS011;18335;51.486;7.562;2023-02-15T05:40:35;38.70;;;19.20;;
31760;SDS011;18335;51.486;7.562;2023-02-15T05:43:02;35.50;;;18.65;;
31760;SDS011;18335;51.486;7.562;2023-02-15T05:45:30;38.45;;;19.63;;
31760;SDS011;18335;51.486;7.562;2023-02-15T05:47:57;33.75;;;18.63;;
31760;SDS011;18335;51.486;7.562;2023-02-15T05:50:24;39.33;;;20.08;;
31760;SDS011;18335;51.486;7.562;2023-02-15T05:52:51;35.60;;;19.85;;
31760;SDS011;18335;51.486;7.562;2023-02-15T05:55:18;35.40;;;17.25;;
31760;SDS011;18335;51.486;7.562;2023-02-15T05:57:45;34.05;;;18.30;;
31760;SDS011;18335;51.486;7.562;2023-02-15T06:00:12;35.17;;;18.63;;
31760;SDS011;18335;51.486;7.562;2023-02-15T06:02:41;33.85;;;18.65;;
31760;SDS011;18335;51.486;7.562;2023-02-15T06:05:08;38.47;;;19.10;;
31760;SDS011;18335;51.486;7.562;2023-02-15T06:07:35;36.70;;;18.85;;
31760;SDS011;18335;51.486;7.562;2023-02-15T06:10:02;34.00;;;17.48;;
31760;SDS011;18335;51.486;7.562;2023-02-15T06:12:29;36.90;;;20.17;;
31760;SDS011;18335;51.486;7.562;2023-02-15T06:14:56;34.50;;;19.13;;
31760;SDS011;18335;51.486;7.562;2023-02-15T06:17:23;38.53;;;18.83;;
31760;SDS011;18335;51.486;7.562;2023-02-15T06:19:51;33.80;;;19.10;;
31760;SDS011;18335;51.486;7.562;2023-02-15T06:22:17;36.05;;;18.08;;
31760;SDS011;18335;51.486;7.562;2023-02-15T06:24:45;33.88;;;18.98;;
31760;SDS011;18335;51.486;7.562;2023-02-15T06:27:12;39.05;;;19.27;;
31760;SDS011;18335;51.486;7.562;2023-02-15T06:29:39;36.67;;;19.10;;
31760;SDS011;18335;51.486;7.562;2023-02-15T06:32:05;34.05;;;18.38;;
31760;SDS011;18335;51.486;7.562;2023-02-15T06:34:32;37.33;;;20.10;;
31760;SDS011;18335;51.486;7.562;2023-02-15T06:37:01;35.58;;;20.38;;
31760;SDS011;18335;51.486;7.562;2023-02-15T06:39:27;33.97;;;17.50;;
31760;SDS011;18335;51.486;7.562;2023-02-15T06:41:54;37.42;;;20.05;;
31760;SDS011;18335;51.486;7.562;2023-02-15T06:44:21;38.28;;;19.40;;
31760;SDS011;18335;51.486;7.562;2023-02-15T06:46:47;32.78;;;17.63;;
31760;SDS011;18335;51.486;7.562;2023-02-15T06:49:14;32.85;;;17.65;;
31760;SDS011;18335;51.486;7.562;2023-02-15T06:51:41;32.97;;;18.40;;
31760;SDS011;18335;51.486;7.562;2023-02-15T06:54:09;31.48;;;17.13;;
31760;SDS011;18335;51.486;7.562;2023-02-15T06:56:36;34.58;;;17.98;;
31760;SDS011;18335;51.486;7.562;2023-02-15T06:59:04;33.58;;;18.65;;
31760;SDS011;18335;51.486;7.562;2023-02-15T07:01:30;38.08;;;19.67;;
31760;SDS011;18335;51.486;7.562;2023-02-15T07:03:57;33.05;;;17.30;;
31760;SDS011;18335;51.486;7.562;2023-02-15T07:06:24;29.75;;;16.85;;
31760;SDS011;18335;51.486;7.562;2023-02-15T07:08:51;36.33;;;17.88;;
31760;SDS011;18335;51.486;7.562;2023-02-15T07:11:19;32.58;;;19.42;;
31760;SDS011;18335;51.486;7.562;2023-02-15T07:14:03;32.38;;;17.40;;
31760;SDS011;18335;51.486;7.562;2023-02-15T07:16:30;31.60;;;15.70;;
31760;SDS011;18335;51.486;7.562;2023-02-15T07:18:57;31.02;;;16.48;;
31760;SDS011;18335;51.486;7.562;2023-02-15T07:21:24;31.92;;;18.42;;
31760;SDS011;18335;51.486;7.562;2023-02-15T07:23:50;33.00;;;16.98;;
31760;SDS011;18335;51.486;7.562;2023-02-15T07:26:19;32.38;;;17.75;;
31760;SDS011;18335;51.486;7.562;2023-02-15T07:28:45;30.65;;;15.65;;
31760;SDS011;18335;51.486;7.562;2023-02-15T07:31:12;31.90;;;16.05;;
31760;SDS011;18335;51.486;7.562;2023-02-15T07:33:39;30.35;;;16.15;;
31760;SDS011;18335;51.486;7.562;2023-02-15T07:36:06;29.20;;;17.05;;
31760;SDS011;18335;51.486;7.562;2023-02-15T07:38:35;28.52;;;15.10;;
31760;SDS011;18335;51.486;7.562;2023-02-15T07:41:04;31.65;;;16.25;;
31760;SDS011;18335;51.486;7.562;2023-02-15T07:43:35;33.55;;;17.15;;
31760;SDS011;18335;51.486;7.562;2023-02-15T07:46:04;36.50;;;17.50;;
31760;SDS011;18335;51.486;7.562;2023-02-15T07:48:34;31.88;;;17.00;;
31760;SDS011;18335;51.486;7.562;2023-02-15T07:51:01;31.30;;;15.73;;
31760;SDS011;18335;51.486;7.562;2023-02-15T07:53:29;34.15;;;18.05;;
31760;SDS011;18335;51.486;7.562;2023-02-15T07:55:58;32.85;;;18.35;;
31760;SDS011;18335;51.486;7.562;2023-02-15T07:58:25;32.50;;;16.95;;
31760;SDS011;18335;51.486;7.562;2023-02-15T08:03:40;28.92;;;14.85;;
31760;SDS011;18335;51.486;7.562;2023-02-15T08:06:07;33.63;;;17.77;;
31760;SDS011;18335;51.486;7.562;2023-02-15T08:08:35;29.08;;;15.80;;
31760;SDS011;18335;51.486;7.562;2023-02-15T08:11:04;32.47;;;15.05;;
31760;SDS011;18335;51.486;7.562;2023-02-15T08:13:52;27.70;;;15.02;;
31760;SDS011;18335;51.486;7.562;2023-02-15T08:16:23;30.52;;;15.35;;
31760;SDS011;18335;51.486;7.562;2023-02-15T08:18:51;26.90;;;14.25;;
31760;SDS011;18335;51.486;7.562;2023-02-15T08:21:18;29.00;;;14.50;;
31760;SDS011;18335;51.486;7.562;2023-02-15T08:23:45;28.52;;;14.95;;
31760;SDS011;18335;51.486;7.562;2023-02-15T08:26:13;32.35;;;15.13;;
31760;SDS011;18335;51.486;7.562;2023-02-15T08:28:40;32.00;;;14.98;;
31760;SDS011;18335;51.486;7.562;2023-02-15T08:31:08;29.33;;;15.30;;
31760;SDS011;18335;51.486;7.562;2023-02-15T08:33:37;25.63;;;15.82;;
31760;SDS011;18335;51.486;7.562;2023-02-15T08:36:06;31.10;;;15.27;;
31760;SDS011;18335;51.486;7.562;2023-02-15T08:38:34;30.38;;;15.65;;
31760;SDS011;18335;51.486;7.562;2023-02-15T08:41:08;28.80;;;15.05;;
31760;SDS011;18335;51.486;7.562;2023-02-15T08:43:36;33.50;;;16.42;;
31760;SDS011;18335;51.486;7.562;2023-02-15T08:46:04;30.85;;;15.70;;
31760;SDS011;18335;51.486;7.562;2023-02-15T08:48:31;33.72;;;16.65;;
31760;SDS011;18335;51.486;7.562;2023-02-15T08:50:59;29.02;;;16.10;;
31760;SDS011;18335;51.486;7.562;2023-02-15T08:53:31;35.63;;;18.50;;
31760;SDS011;18335;51.486;7.562;2023-02-15T08:55:58;28.98;;;16.13;;
31760;SDS011;18335;51.486;7.562;2023-02-15T08:58:25;28.80;;;15.70;;
31760;SDS011;18335;51.486;7.562;2023-02-15T09:00:52;28.90;;;14.27;;
31760;SDS011;18335;51.486;7.562;2023-02-15T09:03:19;26.55;;;14.88;;
31760;SDS011;18335;51.486;7.562;2023-02-15T09:05:46;31.88;;;17.50;;
31760;SDS011;18335;51.486;7.562;2023-02-15T09:08:14;28.65;;;14.50;;
31760;SDS011;18335;51.486;7.562;2023-02-15T09:10:41;26.98;;;14.35;;
31760;SDS011;18335;51.486;7.562;2023-02-15T09:13:08;27.63;;;14.70;;
31760;SDS011;18335;51.486;7.562;2023-02-15T09:15:35;26.23;;;13.82;;
31760;SDS011;18335;51.486;7.562;2023-02-15T09:18:01;29.75;;;14.18;;
31760;SDS011;18335;51.486;7.562;2023-02-15T09:20:31;29.70;;;14.25;;
31760;SDS011;18335;51.486;7.562;2023-02-15T09:23:01;27.58;;;14.05;;
31760;SDS011;18335;51.486;7.562;2023-02-15T09:25:29;28.30;;;14.68;;
31760;SDS011;18335;51.486;7.562;2023-02-15T09:27:55;31.40;;;13.95;;
31760;SDS011;18335;51.486;7.562;2023-02-15T09:30:22;25.17;;;13.20;;
31760;SDS011;18335;51.486;7.562;2023-02-15T09:32:49;26.10;;;13.50;;
31760;SDS011;18335;51.486;7.562;2023-02-15T09:35:16;25.30;;;13.13;;
31760;SDS011;18335;51.486;7.562;2023-02-15T09:37:42;28.63;;;14.95;;
31760;SDS011;18335;51.486;7.562;2023-02-15T09:40:11;25.98;;;12.98;;
31760;SDS011;18335;51.486;7.562;2023-02-15T09:42:51;24.67;;;12.82;;
31760;SDS011;18335;51.486;7.562;2023-02-15T09:48:40;27.67;;;13.38;;
31760;SDS011;18335;51.486;7.562;2023-02-15T09:54:04;25.50;;;13.27;;
31760;SDS011;18335;51.486;7.562;2023-02-15T09:56:47;29.30;;;13.52;;
31760;SDS011;18335;51.486;7.562;2023-02-15T09:59:19;29.85;;;14.65;;
31760;SDS011;18335;51.486;7.562;2023-02-15T10:01:58;25.67;;;13.30;;
31760;SDS011;18335;51.486;7.562;2023-02-15T10:04:40;29.73;;;12.90;;
31760;SDS011;18335;51.486;7.562;2023-02-15T10:07:15;26.95;;;13.88;;
31760;SDS011;18335;51.486;7.562;2023-02-15T10:09:55;28.45;;;14.43;;
31760;SDS011;18335;51.486;7.562;2023-02-15T10:12:36;27.20;;;14.55;;
31760;SDS011;18335;51.486;7.562;2023-02-15T10:15:19;25.52;;;12.48;;
31760;SDS011;18335;51.486;7.562;2023-02-15T10:18:02;23.42;;;12.05;;
31760;SDS011;18335;51.486;7.562;2023-02-15T10:20:39;21.90;;;10.10;;
31760;SDS011;18335;51.486;7.562;2023-02-15T10:23:15;35.63;;;11.65;;
31760;SDS011;18335;51.486;7.562;2023-02-15T10:25:56;24.80;;;11.98;;
31760;SDS011;18335;51.486;7.562;2023-02-15T10:28:31;22.30;;;12.52;;
31760;SDS011;18335;51.486;7.562;2023-02-15T10:31:12;24.35;;;11.40;;
31760;SDS011;18335;51.486;7.562;2023-02-15T10:33:47;26.98;;;12.50;;
31760;SDS011;18335;51.486;7.562;2023-02-15T10:36:21;25.35;;;10.90;;
31760;SDS011;18335;51.486;7.562;2023-02-15T10:38:59;26.25;;;11.43;;
31760;SDS011;18335;51.486;7.562;2023-02-15T10:41:33;19.35;;;10.43;;
31760;SDS011;18335;51.486;7.562;2023-02-15T10:44:13;21.58;;;10.52;;
31760;SDS011;18335;51.486;7.562;2023-02-15T10:47:02;26.70;;;10.52;;
31760;SDS011;18335;51.486;7.562;2023-02-15T10:49:48;22.02;;;10.00;;
31760;SDS011;18335;51.486;7.562;2023-02-15T10:52:29;22.73;;;11.98;;
31760;SDS011;18335;51.486;7.562;2023-02-15T10:55:07;24.45;;;10.48;;
31760;SDS011;18335;51.486;7.562;2023-02-15T10:57:44;21.48;;;10.13;;
31760;SDS011;18335;51.486;7.562;2023-02-15T11:00:18;19.67;;;10.33;;
31760;SDS011;18335;51.486;7.562;2023-02-15T11:02:54;24.38;;;11.00;;
31760;SDS011;18335;51.486;7.562;2023-02-15T11:05:35;19.80;;;9.95;;
31760;SDS011;18335;51.486;7.562;2023-02-15T11:08:14;22.00;;;10.57;;
31760;SDS011;18335;51.486;7.562;2023-02-15T11:10:42;22.52;;;10.25;;
31760;SDS011;18335;51.486;7.562;2023-02-15T11:13:16;23.70;;;10.35;;
31760;SDS011;18335;51.486;7.562;2023-02-15T11:15:44;24.33;;;9.20;;
31760;SDS011;18335;51.486;7.562;2023-02-15T11:18:20;20.33;;;9.82;;
31760;SDS011;18335;51.486;7.562;2023-02-15T11:20:53;22.55;;;10.52;;
31760;SDS011;18335;51.486;7.562;2023-02-15T11:23:22;22.17;;;10.15;;
31760;SDS011;18335;51.486;7.562;2023-02-15T11:25:53;18.20;;;10.77;;
31760;SDS011;18335;51.486;7.562;2023-02-15T11:28:27;23.25;;;10.75;;
31760;SDS011;18335;51.486;7.562;2023-02-15T11:30:58;22.25;;;10.75;;
31760;SDS011;18335;51.486;7.562;2023-02-15T11:33:31;21.75;;;10.80;;
31760;SDS011;18335;51.486;7.562;2023-02-15T11:36:04;19.92;;;10.13;;
31760;SDS011;18335;51.486;7.562;2023-02-15T11:38:35;26.15;;;10.65;;
31760;SDS011;18335;51.486;7.562;2023-02-15T11:41:05;22.02;;;10.38;;
31760;SDS011;18335;51.486;7.562;2023-02-15T11:43:37;22.15;;;10.10;;
31760;SDS011;18335;51.486;7.562;2023-02-15T11:46:08;21.35;;;10.52;;
31760;SDS011;18335;51.486;7.562;2023-02-15T11:48:39;23.05;;;9.82;;
31760;SDS011;18335;51.486;7.562;2023-02-15T11:51:08;20.10;;;10.98;;
31760;SDS011;18335;51.486;7.562;2023-02-15T11:53:39;19.90;;;9.55;;
31760;SDS011;18335;51.486;7.562;2023-02-15T11:56:10;16.83;;;9.32;;
31760;SDS011;18335;51.486;7.562;2023-02-15T11:58:41;18.83;;;9.95;;
31760;SDS011;18335;51.486;7.562;2023-02-15T12:01:14;17.40;;;9.45;;
31760;SDS011;18335;51.486;7.562;2023-02-15T12:03:46;19.80;;;9.30;;
31760;SDS011;18335;51.486;7.562;2023-02-15T12:06:16;20.08;;;9.70;;
31760;SDS011;18335;51.486;7.562;2023-02-15T12:08:50;19.33;;;9.85;;
31760;SDS011;18335;51.486;7.562;2023-02-15T12:11:22;17.38;;;9.25;;
31760;SDS011;18335;51.486;7.562;2023-02-15T12:13:56;17.85;;;9.07;;
31760;SDS011;18335;51.486;7.562;2023-02-15T12:16:23;17.92;;;8.80;;
31760;SDS011;18335;51.486;7.562;2023-02-15T12:18:53;20.58;;;9.60;;
31760;SDS011;18335;51.486;7.562;2023-02-15T12:21:27;19.15;;;10.25;;
31760;SDS011;18335;51.486;7.562;2023-02-15T12:23:57;21.95;;;9.48;;
31760;SDS011;18335;51.486;7.562;2023-02-15T12:26:28;19.13;;;9.60;;
31760;SDS011;18335;51.486;7.562;2023-02-15T12:28:57;22.35;;;9.40;;
31760;SDS011;18335;51.486;7.562;2023-02-15T12:31:27;19.38;;;9.32;;
31760;SDS011;18335;51.486;7.562;2023-02-15T12:34:01;17.00;;;7.88;;
31760;SDS011;18335;51.486;7.562;2023-02-15T12:36:40;16.55;;;7.90;;
31760;SDS011;18335;51.486;7.562;2023-02-15T12:39:19;17.65;;;8.15;;
31760;SDS011;18335;51.486;7.562;2023-02-15T12:41:57;14.55;;;6.95;;
31760;SDS011;18335;51.486;7.562;2023-02-15T12:44:27;18.27;;;7.25;;
31760;SDS011;18335;51.486;7.562;2023-02-15T12:46:56;12.55;;;6.10;;
31760;SDS011;18335;51.486;7.562;2023-02-15T12:49:25;15.55;;;7.43;;
31760;SDS011;18335;51.486;7.562;2023-02-15T12:51:53;14.50;;;7.20;;
31760;SDS011;18335;51.486;7.562;2023-02-15T12:54:29;21.20;;;8.23;;
31760;SDS011;18335;51.486;7.562;2023-02-15T12:59:57;14.95;;;6.30;;
31760;SDS011;18335;51.486;7.562;2023-02-15T13:02:27;15.75;;;7.00;;
31760;SDS011;18335;51.486;7.562;2023-02-15T13:05:03;15.15;;;6.43;;
31760;SDS011;18335;51.486;7.562;2023-02-15T13:07:44;12.85;;;6.85;;
31760;SDS011;18335;51.486;7.562;2023-02-15T13:10:21;14.85;;;6.75;;
31760;SDS011;18335;51.486;7.562;2023-02-15T13:12:50;15.10;;;6.90;;
31760;SDS011;18335;51.486;7.562;2023-02-15T13:15:23;15.32;;;7.50;;
31760;SDS011;18335;51.486;7.562;2023-02-15T13:17:54;13.75;;;6.50;;
31760;SDS011;18335;51.486;7.562;2023-02-15T13:20:23;13.43;;;6.57;;
31760;SDS011;18335;51.486;7.562;2023-02-15T13:22:53;15.65;;;7.47;;
31760;SDS011;18335;51.486;7.562;2023-02-15T13:25:25;15.75;;;7.50;;
31760;SDS011;18335;51.486;7.562;2023-02-15T13:27:56;14.50;;;6.93;;
31760;SDS011;18335;51.486;7.562;2023-02-15T13:30:28;18.83;;;8.65;;
31760;SDS011;18335;51.486;7.562;2023-02-15T13:33:02;17.02;;;7.80;;
31760;SDS011;18335;51.486;7.562;2023-02-15T13:35:35;13.27;;;6.70;;
31760;SDS011;18335;51.486;7.562;2023-02-15T13:38:15;18.40;;;7.43;;
31760;SDS011;18335;51.486;7.562;2023-02-15T13:40:53;16.95;;;7.80;;
31760;SDS011;18335;51.486;7.562;2023-02-15T13:43:27;14.63;;;7.13;;
31760;SDS011;18335;51.486;7.562;2023-02-15T13:46:08;15.35;;;7.28;;
31760;SDS011;18335;51.486;7.562;2023-02-15T13:48:47;18.40;;;8.63;;
31760;SDS011;18335;51.486;7.562;2023-02-15T13:51:27;19.55;;;7.88;;
31760;SDS011;18335;51.486;7.562;2023-02-15T13:54:08;17.30;;;7.88;;
31760;SDS011;18335;51.486;7.562;2023-02-15T13:56:53;16.48;;;7.38;;
31760;SDS011;18335;51.486;7.562;2023-02-15T13:59:31;14.65;;;7.18;;
31760;SDS011;18335;51.486;7.562;2023-02-15T14:05:15;19.00;;;8.73;;
31760;SDS011;18335;51.486;7.562;2023-02-15T14:07:58;18.58;;;8.02;;
31760;SDS011;18335;51.486;7.562;2023-02-15T14:10:43;17.10;;;8.07;;
31760;SDS011;18335;51.486;7.562;2023-02-15T14:16:08;15.93;;;7.03;;
31760;SDS011;18335;51.486;7.562;2023-02-15T14:18:43;18.60;;;7.82;;
31760;SDS011;18335;51.486;7.562;2023-02-15T14:21:16;20.83;;;9.95;;
31760;SDS011;18335;51.486;7.562;2023-02-15T14:23:54;16.05;;;8.32;;
31760;SDS011;18335;51.486;7.562;2023-02-15T14:26:38;15.25;;;7.15;;
31760;SDS011;18335;51.486;7.562;2023-02-15T14:29:16;16.00;;;7.80;;
31760;SDS011;18335;51.486;7.562;2023-02-15T14:31:52;20.88;;;8.07;;
31760;SDS011;18335;51.486;7.562;2023-02-15T14:34:23;17.33;;;8.73;;
31760;SDS011;18335;51.486;7.562;2023-02-15T14:36:56;19.52;;;9.38;;
31760;SDS011;18335;51.486;7.562;2023-02-15T14:39:29;16.80;;;6.80;;
31760;SDS011;18335;51.486;7.562;2023-02-15T14:42:23;14.55;;;7.38;;
31760;SDS011;18335;51.486;7.562;2023-02-15T14:44:57;16.60;;;8.52;;
31760;SDS011;18335;51.486;7.562;2023-02-15T14:47:31;17.75;;;7.88;;
31760;SDS011;18335;51.486;7.562;2023-02-15T14:53:14;17.70;;;8.15;;
31760;SDS011;18335;51.486;7.562;2023-02-15T14:55:44;19.35;;;8.30;;
31760;SDS011;18335;51.486;7.562;2023-02-15T14:58:11;20.48;;;8.52;;
31760;SDS011;18335;51.486;7.562;2023-02-15T15:00:39;15.88;;;7.85;;
31760;SDS011;18335;51.486;7.562;2023-02-15T15:03:11;16.50;;;7.85;;
31760;SDS011;18335;51.486;7.562;2023-02-15T15:05:47;20.02;;;8.40;;
31760;SDS011;18335;51.486;7.562;2023-02-15T15:08:21;17.15;;;8.60;;
31760;SDS011;18335;51.486;7.562;2023-02-15T15:10:54;15.77;;;7.22;;
31760;SDS011;18335;51.486;7.562;2023-02-15T15:13:34;19.30;;;8.07;;
31760;SDS011;18335;51.486;7.562;2023-02-15T15:18:56;17.65;;;8.15;;